.
WxDataArchive / Data Records for 2006-11-08
2006-11-07 November 2006 2006-11-09

Data Records for Wednesday, 08 November 2006

Time	Temp	Chill	HIndex	Humid	Dewpt	 Wind 	HiWind	WindDir	Rain 	Barom 
-----	----	-----	------	-----	-----	------	------	-------	-----	----- 
00:00	51.3	51.3	51.3	97	50.5	0	1	158	0.00	29.730 
00:05	51.3	51.3	51.3	97	50.5	0	0	---	0.00	29.730 
00:10	51.3	51.3	51.3	97	50.5	0	0	---	0.00	29.730 
00:15	51.3	51.3	51.3	97	50.5	0	0	---	0.00	29.726 
00:20	51.3	51.3	51.3	97	50.5	0	0	---	0.00	29.726 
00:25	51.1	51.1	51.1	97	50.3	0	0	---	0.00	29.726 
00:30	51.1	51.1	51.1	97	50.3	0	0	---	0.00	29.726 
00:35	51.3	51.3	51.3	97	50.5	0	0	---	0.00	29.726 
00:40	51.3	51.3	51.3	97	50.5	0	0	---	0.00	29.726 
00:45	51.3	51.3	51.3	97	50.5	0	0	---	0.00	29.724 
00:50	51.3	51.3	51.3	97	50.5	0	0	---	0.00	29.724 
00:55	51.3	51.3	51.3	97	50.5	0	0	---	0.00	29.724 
01:00	51.3	51.3	51.3	97	50.5	0	1	158	0.00	29.710 
01:05	51.4	51.4	51.4	97	50.6	0	0	---	0.00	29.710 
01:10	51.4	51.4	51.4	97	50.6	0	0	---	0.00	29.710 
01:15	51.4	51.4	51.4	97	50.6	0	1	158	0.00	29.709 
01:20	51.3	51.3	51.3	97	50.5	0	1	180	0.00	29.709 
01:25	51.3	51.3	51.3	97	50.5	0	1	180	0.00	29.709 
01:30	51.1	51.1	51.1	97	50.3	0	1	202	0.00	29.711 
01:35	51.0	51.0	51.0	97	50.2	0	1	202	0.00	29.711 
01:40	50.8	50.8	50.8	97	50.0	0	1	202	0.00	29.711 
01:45	50.7	50.7	50.7	97	49.9	0	1	202	0.00	29.709 
01:50	50.7	50.7	50.7	97	49.9	0	0	---	0.00	29.709 
01:55	50.5	50.5	50.5	98	50.0	0	1	202	0.00	29.709 
02:00	50.5	50.5	50.5	98	50.0	0	1	202	0.00	29.708 
02:05	50.4	50.4	50.4	97	49.6	0	1	202	0.00	29.708 
02:10	50.2	50.2	50.2	98	49.7	0	1	202	0.00	29.708 
02:15	50.2	50.2	50.2	98	49.7	0	1	202	0.00	29.709 
02:20	50.1	50.1	50.1	97	49.3	0	1	202	0.00	29.709 
02:25	49.9	49.9	49.9	97	49.1	0	1	202	0.00	29.709 
02:30	49.9	49.9	49.9	97	49.1	0	0	---	0.00	29.706 
02:35	49.8	49.8	49.8	97	49.0	0	1	202	0.00	29.706 
02:40	49.8	49.8	49.8	98	49.3	0	0	---	0.00	29.706 
02:45	49.8	49.8	49.8	98	49.3	0	1	202	0.00	29.701 
02:50	49.6	49.6	49.6	97	48.8	0	1	202	0.00	29.701 
02:55	49.6	49.6	49.6	97	48.8	0	2	248	0.00	29.701 
03:00	49.6	49.6	49.6	97	48.8	0	1	248	0.00	29.694 
03:05	49.5	49.5	49.5	97	48.7	0	0	---	0.00	29.694 
03:10	49.5	49.5	49.5	97	48.7	0	0	---	0.00	29.694 
03:15	49.5	49.5	49.5	97	48.7	0	0	---	0.00	29.693 
03:20	49.5	49.5	49.5	97	48.7	0	0	---	0.00	29.693 
03:25	49.4	49.4	49.4	97	48.6	0	0	---	0.00	29.693 
03:30	49.4	49.4	49.4	97	48.6	0	0	---	0.00	29.688 
03:35	49.4	49.4	49.4	97	48.6	0	0	---	0.00	29.688 
03:40	49.4	49.4	49.4	97	48.6	0	0	---	0.00	29.688 
03:45	49.4	49.4	49.4	97	48.6	0	1	248	0.00	29.681 
03:50	49.4	49.4	49.4	97	48.6	0	0	---	0.00	29.681 
03:55	49.2	49.2	49.2	97	48.4	0	0	---	0.00	29.681 
04:00	49.2	49.2	49.2	97	48.4	0	1	248	0.00	29.686 
04:05	49.2	49.2	49.2	97	48.4	0	0	---	0.00	29.686 
04:10	49.2	49.2	49.2	97	48.4	0	1	248	0.00	29.686 
04:15	49.2	49.2	49.2	97	48.4	0	0	---	0.00	29.686 
04:20	49.2	49.2	49.2	97	48.4	0	1	248	0.00	29.686 
04:25	49.2	49.2	49.2	97	48.4	0	1	248	0.00	29.686 
04:30	49.1	49.1	49.1	97	48.3	0	1	248	0.00	29.689 
04:35	49.1	49.1	49.1	97	48.3	0	1	248	0.00	29.689 
04:40	49.1	49.1	49.1	96	48.0	0	1	248	0.00	29.689 
04:45	49.1	49.1	49.1	96	48.0	0	1	248	0.00	29.694 
04:50	48.9	48.9	48.9	96	47.8	0	2	248	0.00	29.694 
04:55	48.9	48.9	48.9	96	47.8	0	1	248	0.00	29.694 
05:00	48.9	48.9	48.9	96	47.8	0	2	248	0.00	29.696 
05:05	48.9	48.9	48.9	96	47.8	0	1	248	0.00	29.696 
05:10	48.8	48.8	48.8	96	47.7	0	2	248	0.00	29.696 
05:15	48.8	48.8	48.8	95	47.4	0	2	248	0.00	29.698 
05:20	48.6	48.6	48.6	95	47.2	0	1	292	0.00	29.698 
05:25	48.6	48.6	48.6	95	47.2	0	2	292	0.00	29.698 
05:30	48.6	48.6	48.6	94	47.0	0	2	315	0.00	29.696 
05:35	48.6	48.6	48.6	94	47.0	0	1	315	0.00	29.696 
05:40	48.6	48.6	48.6	94	47.0	0	1	315	0.00	29.696 
05:45	48.5	48.5	48.5	94	46.9	0	1	315	0.00	29.694 
05:50	48.5	48.5	48.5	94	46.9	0	1	315	0.00	29.694 
05:55	48.5	48.5	48.5	94	46.9	0	2	315	0.00	29.694 
06:00	48.5	48.5	48.5	94	46.9	0	1	315	0.00	29.685 
06:05	48.5	48.5	48.5	93	46.6	0	2	315	0.00	29.685 
06:10	48.5	48.5	48.5	93	46.6	0	1	315	0.00	29.685 
06:15	48.5	48.5	48.5	93	46.6	0	1	315	0.00	29.687 
06:20	48.5	48.5	48.5	93	46.6	0	1	315	0.00	29.687 
06:25	48.5	48.5	48.5	93	46.6	0	1	315	0.00	29.687 
06:30	48.5	48.5	48.5	93	46.6	0	0	---	0.00	29.696 
06:35	48.5	48.5	48.5	93	46.6	0	1	315	0.00	29.696 
06:40	48.5	48.5	48.5	94	46.9	0	1	315	0.00	29.696 
06:45	48.5	48.5	48.5	94	46.9	0	1	315	0.00	29.691 
06:50	48.5	48.5	48.5	94	46.9	0	1	315	0.00	29.691 
06:55	48.5	48.5	48.5	93	46.6	0	0	---	0.00	29.691 
07:00	48.5	48.5	48.5	93	46.6	0	2	315	0.00	29.692 
07:05	48.5	48.5	48.5	93	46.6	0	1	315	0.00	29.692 
07:10	48.5	48.5	48.5	93	46.6	0	1	315	0.00	29.692 
07:15	48.3	48.3	48.3	93	46.4	0	1	315	0.00	29.693 
07:20	48.0	48.0	48.0	93	46.1	0	1	315	0.00	29.693 
07:25	47.9	47.9	47.9	93	46.0	0	0	---	0.00	29.693 
07:30	47.7	47.7	47.7	93	45.8	0	0	---	0.00	29.696 
07:35	47.6	47.6	47.6	93	45.7	0	1	315	0.00	29.696 
07:40	47.6	47.6	47.6	94	46.0	0	0	---	0.00	29.696 
07:45	47.4	47.4	47.4	94	45.8	0	1	315	0.00	29.698 
07:50	47.3	47.3	47.3	94	45.7	0	1	315	0.00	29.698 
07:55	47.1	47.1	47.1	95	45.7	0	1	315	0.00	29.698 
08:00	47.1	47.1	47.1	95	45.7	0	0	---	0.00	29.698 
08:05	47.0	47.0	47.0	95	45.6	0	0	---	0.00	29.698 
08:10	47.0	47.0	47.0	95	45.6	0	0	---	0.00	29.698 
08:15	47.0	47.0	47.0	95	45.6	0	0	---	0.00	29.698 
08:20	47.1	47.1	47.1	95	45.7	0	0	---	0.00	29.698 
08:25	47.4	47.4	47.4	96	46.3	0	0	---	0.00	29.698 
08:30	48.0	48.0	48.0	96	46.9	0	0	---	0.00	29.696 
08:35	48.5	48.5	48.5	96	47.4	0	0	---	0.00	29.696 
08:40	48.5	48.5	48.5	96	47.4	0	0	---	0.00	29.696 
08:45	48.6	48.6	48.6	95	47.2	0	0	---	0.00	29.699 
08:50	49.1	49.1	49.1	95	47.7	0	1	315	0.00	29.699 
08:55	49.4	49.4	49.4	93	47.5	0	1	315	0.00	29.699 
09:00	49.8	49.8	49.8	92	47.6	0	2	315	0.00	29.699 
09:05	49.9	49.9	49.9	91	47.4	0	1	315	0.00	29.699 
09:10	50.2	50.2	50.2	90	47.4	0	2	315	0.00	29.699 
09:15	50.2	50.2	50.2	90	47.4	0	1	315	0.00	29.703 
09:20	50.4	50.4	50.4	90	47.6	0	1	315	0.00	29.703 
09:25	50.4	50.4	50.4	90	47.6	0	1	315	0.00	29.703 
09:30	50.4	50.4	50.4	90	47.6	0	2	315	0.00	29.697 
09:35	50.5	50.5	50.5	89	47.4	0	2	315	0.00	29.697 
09:40	50.5	50.5	50.5	89	47.4	0	2	315	0.00	29.697 
09:45	50.7	50.7	50.7	88	47.3	0	1	315	0.00	29.695 
09:50	50.8	50.8	50.8	89	47.7	0	2	315	0.00	29.695 
09:55	51.0	51.0	51.0	88	47.6	0	2	315	0.00	29.695 
10:00	51.1	51.1	51.1	87	47.4	0	2	315	0.00	29.685 
10:05	51.4	51.4	51.4	86	47.4	1	3	22	0.00	29.685 
10:10	51.7	51.7	51.7	86	47.6	1	3	22	0.00	29.685 
10:15	51.7	51.7	51.7	84	47.0	1	2	45	0.00	29.679 
10:20	52.0	52.0	52.0	86	47.9	0	2	45	0.00	29.679 
10:25	52.2	52.2	52.2	84	47.5	0	2	45	0.00	29.679 
10:30	52.3	52.3	52.3	83	47.3	0	2	45	0.00	29.676 
10:35	52.6	52.6	52.6	84	47.9	0	1	45	0.00	29.676 
10:40	52.8	52.8	52.8	84	48.1	0	1	45	0.00	29.676 
10:45	52.8	52.8	52.8	82	47.5	0	1	0	0.00	29.677 
10:50	52.8	52.8	52.8	82	47.5	0	0	---	0.00	29.677 
10:55	52.9	52.9	52.9	81	47.2	0	1	0	0.00	29.677 
11:00	53.1	53.1	53.1	80	47.1	0	2	0	0.00	29.674 
11:05	53.2	53.2	53.2	79	46.9	0	2	270	0.00	29.674 
11:10	53.5	53.5	53.5	79	47.1	0	1	292	0.00	29.674 
11:15	53.5	53.5	53.5	79	47.1	0	2	292	0.00	29.674 
11:20	53.5	53.5	53.5	79	47.1	0	2	292	0.00	29.674 
11:25	53.6	53.6	53.6	79	47.2	0	2	292	0.00	29.674 
11:30	53.8	53.8	53.8	79	47.4	1	3	270	0.00	29.666 
11:35	53.8	53.8	53.8	77	46.8	1	5	248	0.00	29.666 
11:40	53.8	53.8	53.8	77	46.8	1	3	248	0.00	29.666 
11:45	53.6	53.6	53.6	77	46.6	1	2	248	0.00	29.663 
11:50	53.6	53.6	53.6	77	46.6	1	4	270	0.00	29.663 
11:55	53.5	53.5	53.5	77	46.5	1	4	225	0.00	29.663 
12:00	53.5	53.5	53.5	77	46.5	1	6	248	0.00	29.651 
12:05	53.5	53.5	53.5	77	46.5	1	6	248	0.00	29.651 
12:10	53.3	53.3	53.3	77	46.3	2	6	248	0.00	29.651 
12:15	53.3	53.3	53.3	77	46.3	2	5	248	0.00	29.650 
12:20	53.3	53.3	53.3	78	46.6	2	3	248	0.00	29.650 
12:25	53.1	53.1	53.1	78	46.4	1	4	270	0.00	29.650 
12:30	53.1	53.1	53.1	78	46.4	0	3	225	0.00	29.645 
12:35	53.1	53.1	53.1	78	46.4	0	1	225	0.00	29.645 
12:40	53.2	53.2	53.2	78	46.5	1	5	248	0.00	29.645 
12:45	53.2	53.2	53.2	77	46.2	0	3	248	0.00	29.632 
12:50	53.2	53.2	53.2	77	46.2	2	4	248	0.00	29.632 
12:55	53.2	53.2	53.2	78	46.5	1	3	248	0.00	29.632 
13:00	53.3	53.3	53.3	78	46.6	1	3	248	0.00	29.634 
13:05	53.5	53.5	53.5	78	46.8	1	4	248	0.00	29.634 
13:10	53.3	53.3	53.3	77	46.3	1	4	248	0.00	29.634 
13:15	53.2	53.2	53.2	78	46.5	3	6	248	0.00	29.638 
13:20	53.1	53.1	53.1	79	46.8	2	4	248	0.00	29.638 
13:25	52.9	52.9	52.9	79	46.6	1	3	248	0.00	29.638 
13:30	52.8	52.8	52.8	78	46.1	2	5	248	0.00	29.639 
13:35	52.9	52.9	52.9	79	46.6	1	4	248	0.00	29.639 
13:40	52.9	52.9	52.9	79	46.6	1	3	270	0.00	29.639 
13:45	52.8	52.8	52.8	78	46.1	2	6	248	0.00	29.632 
13:50	52.8	52.8	52.8	79	46.5	1	4	248	0.00	29.632 
13:55	52.8	52.8	52.8	79	46.5	2	5	248	0.00	29.632 
14:00	52.9	52.9	52.9	79	46.6	1	4	248	0.00	29.629 
14:05	52.9	52.9	52.9	79	46.6	0	1	248	0.00	29.629 
14:10	52.9	52.9	52.9	78	46.2	2	5	248	0.00	29.629 
14:15	52.8	52.8	52.8	79	46.5	2	9	248	0.00	29.628 
14:20	52.6	52.6	52.6	79	46.3	1	4	248	0.00	29.628 
14:25	52.6	52.6	52.6	80	46.6	1	2	248	0.00	29.628 
14:30	52.6	52.6	52.6	80	46.6	1	4	248	0.00	29.618 
14:35	52.6	52.6	52.6	80	46.6	1	6	248	0.00	29.618 
14:40	52.6	52.6	52.6	79	46.3	1	3	248	0.00	29.618 
14:45	52.5	52.5	52.5	80	46.5	1	4	248	0.00	29.621 
14:50	52.5	52.5	52.5	80	46.5	1	4	248	0.00	29.621 
14:55	52.3	52.3	52.3	80	46.3	2	4	248	0.00	29.621 
15:00	52.3	52.3	52.3	81	46.6	2	5	248	0.00	29.627 
15:05	52.0	52.0	52.0	81	46.4	1	3	248	0.00	29.627 
15:10	51.9	51.9	51.9	81	46.3	1	5	270	0.00	29.627 
15:15	51.9	51.9	51.9	81	46.3	2	4	270	0.00	29.634 
15:20	51.7	51.7	51.7	81	46.1	1	4	248	0.00	29.634 
15:25	51.7	51.7	51.7	81	46.1	2	5	248	0.00	29.634 
15:30	51.7	51.7	51.7	82	46.4	1	5	248	0.00	29.632 
15:35	51.7	51.7	51.7	82	46.4	1	4	248	0.00	29.632 
15:40	51.7	51.7	51.7	82	46.4	2	5	248	0.00	29.632 
15:45	51.7	51.7	51.7	82	46.4	1	4	248	0.00	29.634 
15:50	51.7	51.7	51.7	82	46.4	2	6	248	0.00	29.634 
15:55	51.7	51.7	51.7	81	46.1	1	5	248	0.00	29.634 
16:00	51.7	51.7	51.7	81	46.1	2	5	225	0.00	29.634 
16:05	51.7	51.7	51.7	82	46.4	2	9	225	0.00	29.634 
16:10	51.7	51.7	51.7	81	46.1	2	4	248	0.00	29.634 
16:15	51.7	51.7	51.7	82	46.4	1	4	248	0.00	29.637 
16:20	51.9	51.9	51.9	82	46.6	1	3	248	0.00	29.637 
16:25	51.9	51.9	51.9	82	46.6	1	5	248	0.00	29.637 
16:30	51.9	51.9	51.9	82	46.6	1	4	248	0.00	29.642 
16:35	51.9	51.9	51.9	82	46.6	0	3	248	0.00	29.642 
16:40	51.9	51.9	51.9	82	46.6	1	3	248	0.00	29.642 
16:45	51.9	51.9	51.9	81	46.3	2	5	248	0.00	29.641 
16:50	51.7	51.7	51.7	82	46.4	1	4	248	0.00	29.641 
16:55	51.7	51.7	51.7	81	46.1	2	6	248	0.00	29.641 
17:00	51.7	51.7	51.7	82	46.4	1	4	248	0.00	29.645 
17:05	51.7	51.7	51.7	82	46.4	1	3	248	0.00	29.645 
17:10	51.7	51.7	51.7	82	46.4	1	5	248	0.00	29.645 
17:15	51.7	51.7	51.7	82	46.4	1	3	248	0.00	29.644 
17:20	51.7	51.7	51.7	82	46.4	1	5	248	0.00	29.644 
17:25	51.7	51.7	51.7	82	46.4	0	2	248	0.00	29.644 
17:30	51.7	51.7	51.7	82	46.4	0	1	248	0.00	29.648 
17:35	51.7	51.7	51.7	82	46.4	0	2	248	0.00	29.648 
17:40	51.7	51.7	51.7	82	46.4	0	2	270	0.00	29.648 
17:45	51.6	51.6	51.6	82	46.3	1	4	248	0.00	29.644 
17:50	51.6	51.6	51.6	82	46.3	0	1	248	0.00	29.644 
17:55	51.6	51.6	51.6	82	46.3	1	3	248	0.00	29.644 
18:00	51.6	51.6	51.6	82	46.3	1	2	248	0.00	29.642 
18:05	51.6	51.6	51.6	82	46.3	1	5	248	0.00	29.642 
18:10	51.6	51.6	51.6	82	46.3	1	3	248	0.00	29.642 
18:15	51.6	51.6	51.6	82	46.3	1	3	248	0.00	29.646 
18:20	51.6	51.6	51.6	82	46.3	0	2	248	0.00	29.646 
18:25	51.4	51.4	51.4	82	46.1	0	2	248	0.00	29.646 
18:30	51.4	51.4	51.4	82	46.1	0	1	248	0.00	29.646 
18:35	51.3	51.3	51.3	83	46.3	0	1	248	0.00	29.646 
18:40	51.1	51.1	51.1	83	46.1	0	1	248	0.00	29.646 
18:45	51.0	51.0	51.0	83	46.0	0	1	248	0.00	29.638 
18:50	50.8	50.8	50.8	84	46.1	0	2	248	0.00	29.638 
18:55	50.7	50.7	50.7	84	46.0	0	0	---	0.00	29.638 
19:00	50.4	50.4	50.4	84	45.7	0	1	248	0.00	29.637 
19:05	50.1	50.1	50.1	84	45.5	0	0	---	0.00	29.637 
19:10	49.8	49.8	49.8	84	45.2	0	0	---	0.00	29.637 
19:15	49.5	49.5	49.5	85	45.2	0	1	248	0.00	29.644 
19:20	49.2	49.2	49.2	85	44.9	0	0	---	0.00	29.644 
19:25	48.9	48.9	48.9	86	44.9	0	0	---	0.00	29.644 
19:30	48.8	48.8	48.8	87	45.1	0	0	---	0.00	29.639 
19:35	48.6	48.6	48.6	88	45.2	0	0	---	0.00	29.639 
19:40	48.6	48.6	48.6	88	45.2	0	1	248	0.00	29.639 
19:45	48.5	48.5	48.5	88	45.1	0	0	---	0.00	29.638 
19:50	48.6	48.6	48.6	89	45.5	0	1	248	0.00	29.638 
19:55	48.6	48.6	48.6	88	45.2	0	1	248	0.00	29.638 
20:00	48.6	48.6	48.6	88	45.2	0	0	---	0.00	29.636 
20:05	48.6	48.6	48.6	88	45.2	0	1	248	0.00	29.636 
20:10	48.6	48.6	48.6	89	45.5	0	1	248	0.00	29.636 
20:15	48.6	48.6	48.6	89	45.5	0	1	248	0.00	29.637 
20:20	48.6	48.6	48.6	89	45.5	0	1	248	0.00	29.637 
20:25	48.8	48.8	48.8	89	45.7	0	2	248	0.00	29.637 
20:30	48.9	48.9	48.9	88	45.5	0	1	248	0.00	29.634 
20:35	48.9	48.9	48.9	88	45.5	0	1	248	0.00	29.634 
20:40	48.9	48.9	48.9	88	45.5	0	1	248	0.00	29.634 
20:45	49.1	49.1	49.1	88	45.7	0	2	248	0.00	29.633 
20:50	49.1	49.1	49.1	88	45.7	0	1	248	0.00	29.633 
20:55	49.1	49.1	49.1	88	45.7	0	1	248	0.00	29.633 
21:00	48.9	48.9	48.9	88	45.5	0	1	225	0.00	29.626 
21:05	48.9	48.9	48.9	87	45.2	0	3	225	0.00	29.626 
21:10	48.8	48.8	48.8	88	45.4	0	2	202	0.00	29.626 
21:15	48.6	48.6	48.6	88	45.2	0	2	202	0.00	29.627 
21:20	48.6	48.6	48.6	88	45.2	0	2	202	0.00	29.627 
21:25	48.6	48.6	48.6	88	45.2	0	2	225	0.00	29.627 
21:30	48.5	48.5	48.5	88	45.1	1	3	248	0.00	29.626 
21:35	48.6	48.6	48.6	88	45.2	1	4	248	0.00	29.626 
21:40	48.6	48.6	48.6	88	45.2	1	3	112	0.00	29.626 
21:45	48.6	48.6	48.6	88	45.2	0	2	270	0.00	29.625 
21:50	48.8	48.8	48.8	88	45.4	0	3	248	0.00	29.625 
21:55	48.9	48.9	48.9	88	45.5	1	3	248	0.00	29.625 
22:00	48.9	48.9	48.9	88	45.5	0	2	248	0.00	29.627 
22:05	49.1	49.1	49.1	88	45.7	1	6	112	0.00	29.627 
22:10	49.1	49.1	49.1	87	45.4	1	3	225	0.00	29.627 
22:15	49.1	49.1	49.1	87	45.4	0	2	248	0.00	29.630 
22:20	49.1	49.1	49.1	87	45.4	0	2	248	0.00	29.630 
22:25	49.1	49.1	49.1	87	45.4	0	2	270	0.00	29.630 
22:30	49.1	49.1	49.1	87	45.4	1	3	248	0.00	29.625 
22:35	48.9	48.9	48.9	87	45.2	0	1	248	0.00	29.625 
22:40	48.9	48.9	48.9	87	45.2	1	3	248	0.00	29.625 
22:45	48.9	48.9	48.9	87	45.2	1	2	248	0.00	29.629 
22:50	48.9	48.9	48.9	87	45.2	1	3	248	0.00	29.629 
22:55	48.9	48.9	48.9	87	45.2	1	3	248	0.00	29.629 
23:00	48.9	48.9	48.9	87	45.2	1	4	248	0.00	29.620 
23:05	49.1	49.1	49.1	87	45.4	1	6	248	0.00	29.620 
23:10	49.1	49.1	49.1	87	45.4	1	4	248	0.00	29.620 
23:15	49.2	49.2	49.2	87	45.5	1	3	248	0.00	29.617 
23:20	49.2	49.2	49.2	87	45.5	0	2	248	0.00	29.617 
23:25	49.2	49.2	49.2	87	45.5	1	3	248	0.00	29.617 
23:30	49.4	49.4	49.4	86	45.4	1	4	248	0.00	29.616 
23:35	49.5	49.5	49.5	86	45.5	1	3	248	0.00	29.616 
23:40	49.5	49.5	49.5	86	45.5	1	3	248	0.00	29.616 
23:45	49.5	49.5	49.5	86	45.5	0	3	248	0.00	29.614 
23:50	49.5	49.5	49.5	86	45.5	1	3	248	0.00	29.614 
23:55	49.5	49.5	49.5	86	45.5	1	5	248	0.00	29.614 

CoCoRaHS
IN-AL-39
A2 Web Hosting
Creative Commons License
GoDaddy
Look for:

loaded 2017-12-11 06:41:07 • last modified 2010-11-18 10:43:29
Privacy PolicyDisclaimer
• wx.awcolley.com is powered by PmWiki v.2002016 •
• all content (unless otherwise noted) © 2017 A W Colley